Norwegian Crown — C6II4 — position and weather

sailwx.info

Track history (hours):
 
Tides and Currents Weather Stations Pressure Air Temp Water Temp Dewpoint Dewpoint Depression Visibility Wind Speed Wind Dir Waves Ship Positions

Norwegian Crown

Operator: Norwegian Cruise Line

Last reported at 2018-Sep-21 02:31 UTC. Time now 2018-Sep-21 02:44 UTC.
Position N 51°57' E 003°33'.

Type: Ship. MMSI: 308785000.

Date/timePositionNaut miles runAvg speedWind from/ knotsBaromVisibWave heightAir tempDewpointWater temp
2018-Sep-21 02:31N 51°57' E 003°33'4 9.7
2018-Sep-21 02:03N 51°55' E 003°26'110.1
2018-Sep-21 01:58N 51°55' E 003°25'5 9.9
2018-Sep-21 01:30N 51°54' E 003°17'410.0
2018-Sep-21 01:03N 51°53' E 003°10'110.3
2018-Sep-21 00:59N 51°52' E 003°09'510.1
2018-Sep-21 00:28N 51°51' E 003°01'510.3
2018-Sep-21 00:00N 51°49' E 002°54'810.4
2018-Sep-20 23:13N 51°46' E 002°42'211.2
2018-Sep-20 23:03N 51°45' E 002°40'110.9
2018-Sep-20 22:59N 51°44' E 002°40'5 9.9
2018-Sep-20 22:29N 51°39' E 002°43'3 6.3
2018-Sep-20 22:02N 51°36' E 002°44'011.0
2018-Sep-20 22:00N 51°36' E 002°43'3 7.0
2018-Sep-20 21:30N 51°33' E 002°45'3 5.6
2018-Sep-20 21:03N 51°31' E 002°43'010.1
2018-Sep-20 21:00N 51°31' E 002°42'2 4.1
2018-Sep-20 20:29N 51°29' E 002°41'4 8.8
2018-Sep-20 20:03N 51°25' E 002°43'0 8.3
2018-Sep-20 20:00N 51°25' E 002°43'4 7.2
2018-Sep-20 19:30N 51°22' E 002°46'511.8
2018-Sep-20 19:04N 51°23' E 002°55'111.9
2018-Sep-20 19:00N 51°23' E 002°56'611.4
2018-Sep-20 18:31N 51°24' E 003°04'511.1
2018-Sep-20 18:03N 51°22' E 003°11'111.0
2018-Sep-20 18:01N 51°22' E 003°12'1 2.2
2018-Sep-20 17:30N 51°20' E 003°12'0 0.0
2018-Sep-20 17:00N 51°20' E 003°12'0 0.0
2018-Sep-20 16:30N 51°20' E 003°12'0 0.0
2018-Sep-20 16:03N 51°20' E 003°12'0 0.0
2018-Sep-20 16:00N 51°20' E 003°12'0 0.0
2018-Sep-20 15:30N 51°20' E 003°12'0 0.0
2018-Sep-20 15:00N 51°20' E 003°12'0 0.0
2018-Sep-20 14:30N 51°20' E 003°12'0 0.0
2018-Sep-20 14:00N 51°20' E 003°12'0 0.0
2018-Sep-20 13:30N 51°20' E 003°12'0 0.0
2018-Sep-20 13:03N 51°20' E 003°12'0 0.0
2018-Sep-20 13:00N 51°20' E 003°12'0 0.0
2018-Sep-20 12:30N 51°20' E 003°12'0 0.0
2018-Sep-20 12:03N 51°20' E 003°12'0 0.0
2018-Sep-20 12:00N 51°20' E 003°12'0 0.0
2018-Sep-20 11:30N 51°20' E 003°12'0 0.0
2018-Sep-20 11:00N 51°20' E 003°12'0 0.0
2018-Sep-20 10:27N 51°20' E 003°12'0 0.0
2018-Sep-20 10:00N 51°20' E 003°12'0 0.0
2018-Sep-20 09:27N 51°20' E 003°12'0 0.0
2018-Sep-20 09:03N 51°20' E 003°12'0 0.0
2018-Sep-20 09:00N 51°20' E 003°12'0 0.0
2018-Sep-20 08:30N 51°20' E 003°12'0 0.0
2018-Sep-20 08:00N 51°20' E 003°12'0 0.0
2018-Sep-20 07:30N 51°20' E 003°12'0 0.0
2018-Sep-20 07:03N 51°20' E 003°12'0 0.0
2018-Sep-20 07:00N 51°20' E 003°12'0 0.0
2018-Sep-20 06:30N 51°20' E 003°12'0 0.3
2018-Sep-20 06:04N 51°21' E 003°12'0 1.9
2018-Sep-20 06:00N 51°21' E 003°12'3 6.8
2018-Sep-20 05:30N 51°23' E 003°09'614.1
2018-Sep-20 05:03N 51°23' E 002°59'115.2
2018-Sep-20 05:00N 51°23' E 002°58'714.8
2018-Sep-20 04:30N 51°22' E 002°46'510.2
2018-Sep-20 04:03N 51°22' E 002°39'115.2
2018-Sep-20 03:59N 51°22' E 002°37'510.5
2018-Sep-20 03:30N 51°26' E 002°32'715.7
2018-Sep-20 03:03N 51°33' E 002°36'115.4
2018-Sep-20 03:00N 51°34' E 002°37'814.8
2018-Sep-20 02:30N 51°41' E 002°39'715.3
2018-Sep-20 02:02N 51°48' E 002°38'014.2
2018-Sep-20 02:00N 51°49' E 002°38'813.9
2018-Sep-20 01:27N 51°56' E 002°41'714.4
2018-Sep-20 00:58N 52°01' E 002°48'714.7
2018-Sep-20 00:29N 52°01' E 002°60'614.3
2018-Sep-20 00:03N 52°03' E 003°09'114.2
2018-Sep-20 00:00N 52°03' E 003°11'714.0
2018-Sep-19 23:30N 52°03' E 003°22'613.9
2018-Sep-19 23:03N 52°03' E 003°32'113.7
2018-Sep-19 23:00N 52°03' E 003°33'713.1
2018-Sep-19 22:30N 52°05' E 003°43'612.8
2018-Sep-19 22:03N 52°11' E 003°46'113.2
2018-Sep-19 22:00N 52°12' E 003°46'613.1
2018-Sep-19 21:30N 52°18' E 003°47'612.9
2018-Sep-19 21:03N 52°24' E 003°50'112.9
2018-Sep-19 21:00N 52°24' E 003°50'612.5
2018-Sep-19 20:30N 52°31' E 003°52'612.9
2018-Sep-19 20:03N 52°31' E 004°02'113.1
2018-Sep-19 20:00N 52°31' E 004°03'713.6
2018-Sep-19 19:30N 52°31' E 004°14'613.1
2018-Sep-19 19:03N 52°30' E 004°23'0 9.2
2018-Sep-19 19:00N 52°30' E 004°24'4 8.7
2018-Sep-19 18:30N 52°28' E 004°31'3 7.7
2018-Sep-19 18:03N 52°28' E 004°36'0 0.0
2018-Sep-19 18:00N 52°28' E 004°36'2 4.0
2018-Sep-19 17:30N 52°28' E 004°40'4 7.8
2018-Sep-19 17:03N 52°26' E 004°45'0 8.2
2018-Sep-19 17:00N 52°26' E 004°45'4 7.3
2018-Sep-19 16:31N 52°25' E 004°51'3 6.6
2018-Sep-19 16:03N 52°23' E 004°54'0 5.7
2018-Sep-19 16:00N 52°23' E 004°55'0 0.1
2018-Sep-19 15:29N 52°23' E 004°55'0 0.0
2018-Sep-19 15:02N 52°23' E 004°55'0 0.0
2018-Sep-19 14:59N 52°23' E 004°55'0 0.0
2018-Sep-19 13:59N 52°23' E 004°55'0 0.0
2018-Sep-19 13:29N 52°23' E 004°55'0 0.0
2018-Sep-19 13:02N 52°23' E 004°55'0 0.0
2018-Sep-19 12:59N 52°23' E 004°55'0 0.0
2018-Sep-19 12:29N 52°23' E 004°55'0 0.0
2018-Sep-19 12:02N 52°23' E 004°55'0 0.0
2018-Sep-19 11:59N 52°23' E 004°55'0 0.0
2018-Sep-19 11:29N 52°23' E 004°55'0 0.0
2018-Sep-19 11:02N 52°23' E 004°55'0 0.0
2018-Sep-19 10:59N 52°23' E 004°55'0 0.0
2018-Sep-19 10:29N 52°23' E 004°55'0 0.0
2018-Sep-19 10:02N 52°23' E 004°55'0 0.0
2018-Sep-19 09:59N 52°23' E 004°55'0 0.0
2018-Sep-19 09:29N 52°23' E 004°55'0 0.0
2018-Sep-19 09:02N 52°23' E 004°55'0 0.0
2018-Sep-19 08:59N 52°23' E 004°55'0 0.0
2018-Sep-19 08:29N 52°23' E 004°55'0 0.0
2018-Sep-19 08:02N 52°23' E 004°55'0 0.0
2018-Sep-19 07:59N 52°23' E 004°55'0 0.0
2018-Sep-19 07:29N 52°23' E 004°55'0 0.0
2018-Sep-19 07:02N 52°23' E 004°55'0 0.0
2018-Sep-19 06:59N 52°23' E 004°55'0 0.0
2018-Sep-19 06:29N 52°23' E 004°55'0 0.0
2018-Sep-19 06:02N 52°23' E 004°55'0 0.0
2018-Sep-19 05:59N 52°23' E 004°55'0 0.0
2018-Sep-19 05:29N 52°23' E 004°55'0 0.0
2018-Sep-19 05:02N 52°23' E 004°55'0 0.0
2018-Sep-19 04:59N 52°23' E 004°55'0 0.0
2018-Sep-19 04:29N 52°23' E 004°55'0 0.0
2018-Sep-19 04:02N 52°23' E 004°55'0 0.0
2018-Sep-19 03:59N 52°23' E 004°55'0 0.0
2018-Sep-19 03:29N 52°23' E 004°55'0 0.0
2018-Sep-19 03:02N 52°23' E 004°55'0 0.0
2018-Sep-19 02:59N 52°23' E 004°55'0 0.0
2018-Sep-19 02:29N 52°23' E 004°55'0 0.0
2018-Sep-19 02:02N 52°23' E 004°55'0 0.0
2018-Sep-19 01:59N 52°23' E 004°55'0 0.0
2018-Sep-19 01:29N 52°23' E 004°55'0 0.0
2018-Sep-19 01:02N 52°23' E 004°55'0 0.0
2018-Sep-19 00:59N 52°23' E 004°55'0 0.0
2018-Sep-19 00:29N 52°23' E 004°55'0 0.0
2018-Sep-19 00:02N 52°23' E 004°55'0 0.0
2018-Sep-18 23:59N 52°23' E 004°55'0 0.0
2018-Sep-18 23:29N 52°23' E 004°55'0 0.0
2018-Sep-18 23:02N 52°23' E 004°55'0 0.0
2018-Sep-18 22:59N 52°23' E 004°55'0 0.0
2018-Sep-18 22:29N 52°23' E 004°55'0 0.0
2018-Sep-18 22:02N 52°23' E 004°55'0 0.0
2018-Sep-18 21:59N 52°23' E 004°55'0 0.0
2018-Sep-18 21:29N 52°23' E 004°55'0 0.0
2018-Sep-18 21:02N 52°23' E 004°55'0 0.0
2018-Sep-18 20:59N 52°23' E 004°55'0 0.0
2018-Sep-18 20:29N 52°23' E 004°55'0 0.0
2018-Sep-18 20:02N 52°23' E 004°55'0 0.0
2018-Sep-18 19:59N 52°23' E 004°55'0 0.0
2018-Sep-18 19:29N 52°23' E 004°55'0 0.0
2018-Sep-18 19:02N 52°23' E 004°55'0 0.0
2018-Sep-18 18:59N 52°23' E 004°55'0 0.0
2018-Sep-18 18:26N 52°23' E 004°55'0 0.0
2018-Sep-18 18:02N 52°23' E 004°55'0 0.0
2018-Sep-18 17:59N 52°23' E 004°55'0 0.0
2018-Sep-18 17:29N 52°23' E 004°55'0 0.0
2018-Sep-18 17:02N 52°23' E 004°55'0 0.0
2018-Sep-18 16:59N 52°23' E 004°55'0 0.0
2018-Sep-18 16:29N 52°23' E 004°55'0 0.0
2018-Sep-18 16:02N 52°23' E 004°55'0 0.0
2018-Sep-18 15:59N 52°23' E 004°55'0 0.0
2018-Sep-18 15:26N 52°23' E 004°55'0 0.0
2018-Sep-18 15:02N 52°23' E 004°55'0 0.0
2018-Sep-18 14:59N 52°23' E 004°55'0 0.0
2018-Sep-18 14:02N 52°23' E 004°55'0 0.0
2018-Sep-18 13:59N 52°23' E 004°55'0 0.0
2018-Sep-18 13:29N 52°23' E 004°55'0 0.0
2018-Sep-18 13:02N 52°23' E 004°55'0 0.0
2018-Sep-18 12:59N 52°23' E 004°55'0 0.0
2018-Sep-18 12:29N 52°23' E 004°55'0 0.0
2018-Sep-18 12:02N 52°23' E 004°55'0 0.0
2018-Sep-18 11:59N 52°23' E 004°55'0 0.0
2018-Sep-18 11:29N 52°23' E 004°55'0 0.0
2018-Sep-18 11:02N 52°23' E 004°55'0 0.0
2018-Sep-18 10:59N 52°23' E 004°55'0 0.0
2018-Sep-18 10:29N 52°23' E 004°55'0 0.0
2018-Sep-18 10:02N 52°23' E 004°55'0 0.0
2018-Sep-18 09:56N 52°23' E 004°55'0 0.0
2018-Sep-18 09:26N 52°23' E 004°55'0 0.0
2018-Sep-18 09:02N 52°23' E 004°55'0 0.0
2018-Sep-18 08:59N 52°23' E 004°55'0 0.0
2018-Sep-18 08:30N 52°23' E 004°55'0 1.0
2018-Sep-18 08:03N 52°23' E 004°54'0 6.1
2018-Sep-18 08:00N 52°23' E 004°54'3 6.7
2018-Sep-18 07:30N 52°25' E 004°49'4 8.1
2018-Sep-18 07:03N 52°26' E 004°44'0 8.7
2018-Sep-18 07:00N 52°26' E 004°43'4 8.1
2018-Sep-18 06:30N 52°28' E 004°37'0 1.0
2018-Sep-18 06:03N 52°28' E 004°36'0 2.6
2018-Sep-18 06:00N 52°28' E 004°36'2 4.0
2018-Sep-18 05:30N 52°28' E 004°33'510.5
2018-Sep-18 05:03N 52°29' E 004°25'0 7.5
2018-Sep-18 05:00N 52°29' E 004°25'3 6.5
2018-Sep-18 04:30N 52°28' E 004°19'3 7.4
2018-Sep-18 04:03N 52°29' E 004°14'110.3
2018-Sep-18 04:00N 52°29' E 004°13'611.3
2018-Sep-18 03:30N 52°28' E 004°04'510.3
2018-Sep-18 03:03N 52°27' E 003°57'010.0
2018-Sep-18 03:00N 52°27' E 003°56'510.0
2018-Sep-18 02:30N 52°26' E 003°48'510.1
2018-Sep-18 02:03N 52°25' E 003°40'110.0
2018-Sep-18 02:00N 52°25' E 003°39'510.1
2018-Sep-18 01:30N 52°24' E 003°31'510.3
2018-Sep-18 01:03N 52°24' E 003°24'110.4
2018-Sep-18 01:00N 52°24' E 003°23'510.1
2018-Sep-18 00:30N 52°22' E 003°15'510.6
2018-Sep-18 00:03N 52°20' E 003°08'110.7
2018-Sep-18 00:00N 52°19' E 003°08'611.3
2018-Sep-17 23:30N 52°17' E 002°59'511.4
2018-Sep-17 23:03N 52°14' E 002°52'111.2
2018-Sep-17 23:00N 52°14' E 002°51'611.4
2018-Sep-17 22:30N 52°11' E 002°44'4 8.5
2018-Sep-17 22:03N 52°09' E 002°38'0 9.7
2018-Sep-17 22:01N 52°10' E 002°38'5 9.7
2018-Sep-17 21:30N 52°15' E 002°39'4 9.3
2018-Sep-17 21:03N 52°19' E 002°39'0 9.2
2018-Sep-17 21:01N 52°19' E 002°39'5 9.3
2018-Sep-17 20:30N 52°24' E 002°39'4 9.3
2018-Sep-17 20:03N 52°28' E 002°39'0 9.3
2018-Sep-17 20:00N 52°28' E 002°39'4 8.9
2018-Sep-17 19:30N 52°33' E 002°39'4 8.5
2018-Sep-17 19:03N 52°37' E 002°38'0 8.6
2018-Sep-17 19:00N 52°37' E 002°38'4 8.6
2018-Sep-17 18:30N 52°41' E 002°38'4 8.7
2018-Sep-17 18:03N 52°45' E 002°38'0 8.9
2018-Sep-17 18:00N 52°46' E 002°38'5 9.1
2018-Sep-17 17:30N 52°50' E 002°39'4 9.3
2018-Sep-17 17:03N 52°55' E 002°39'0 9.5
2018-Sep-17 17:00N 52°55' E 002°39'5 9.2
2018-Sep-17 16:30N 52°59' E 002°34'4 9.6
2018-Sep-17 16:03N 53°02' E 002°30'1 9.6
2018-Sep-17 16:00N 53°02' E 002°29'5 9.8
2018-Sep-17 15:30N 53°06' E 002°24'510.0
2018-Sep-17 15:03N 53°09' E 002°18'010.0
2018-Sep-17 15:01N 53°10' E 002°18'510.0
2018-Sep-17 14:30N 53°13' E 002°12'510.4
2018-Sep-17 14:00N 53°17' E 002°06'510.5
2018-Sep-17 13:30N 53°20' E 001°59'510.5
2018-Sep-17 13:03N 53°24' E 001°54'110.7
2018-Sep-17 13:00N 53°24' E 001°54'610.7
2018-Sep-17 12:29N 53°28' E 001°47'511.0
2018-Sep-17 12:03N 53°31' E 001°41'110.9
2018-Sep-17 12:00N 53°32' E 001°40'1110.7
2018-Sep-17 10:56N 53°38' E 001°25'3510.3
2018-Sep-17 07:32N 54°05' E 000°46'210.1
2018-Sep-17 07:23N 54°06' E 000°45'310.2
2018-Sep-17 07:04N 54°10' E 000°45'110.0
2018-Sep-17 07:00N 54°10' E 000°45'510.2
2018-Sep-17 06:31N 54°15' E 000°45'510.1
2018-Sep-17 06:02N 54°20' E 000°45'7 9.8
2018-Sep-17 05:19N 54°27' E 000°45'4 9.8
2018-Sep-17 04:56N 54°31' E 000°46'5 9.6
2018-Sep-17 04:28N 54°35' E 000°46'59 7.3
2018-Sep-16 20:23N 54°58' W 000°48'6 9.9
2018-Sep-16 19:44N 54°56' W 000°59'210.3
2018-Sep-16 19:30N 54°57' W 001°02'510.4
2018-Sep-16 19:03N 54°59' W 001°10'110.4
2018-Sep-16 19:00N 54°59' W 001°11'510.3
2018-Sep-16 18:30N 55°00' W 001°19'4 8.6
2018-Sep-16 18:03N 55°00' W 001°26'0 6.5
2018-Sep-16 18:00N 55°00' W 001°26'1 1.4
2018-Sep-16 17:30N 54°60' W 001°27'0 0.1
2018-Sep-16 17:03N 54°60' W 001°27'0 0.0
2018-Sep-16 17:00N 54°60' W 001°27'0 0.0
2018-Sep-16 16:30N 54°60' W 001°27'0 0.0
2018-Sep-16 16:03N 54°60' W 001°27'0 0.0
2018-Sep-16 16:00N 54°60' W 001°27'0 0.0
2018-Sep-16 15:30N 54°60' W 001°27'0 0.0
2018-Sep-16 15:03N 54°60' W 001°27'0 0.0
2018-Sep-16 15:00N 54°60' W 001°27'0 0.0
2018-Sep-16 14:30N 54°60' W 001°27'0 0.0
2018-Sep-16 13:30N 54°60' W 001°27'0 0.0
2018-Sep-16 13:03N 54°60' W 001°27'0 0.0
2018-Sep-16 13:00N 54°60' W 001°27'0 0.0
2018-Sep-16 12:30N 54°60' W 001°27'0 0.0
2018-Sep-16 12:03N 54°60' W 001°27'0 0.0
2018-Sep-16 12:00N 54°60' W 001°27'0 0.0
2018-Sep-16 11:30N 54°60' W 001°27'0 0.0
2018-Sep-16 11:00N 54°60' W 001°27'0 0.0
2018-Sep-16 10:30N 54°60' W 001°27'0 0.0
2018-Sep-16 10:03N 54°60' W 001°27'0 0.0
2018-Sep-16 10:00N 54°60' W 001°27'0 0.0
2018-Sep-16 09:30N 54°60' W 001°27'0 0.0
2018-Sep-16 09:03N 54°60' W 001°27'0 0.0
2018-Sep-16 09:00N 54°60' W 001°27'0 0.0
2018-Sep-16 08:30N 54°60' W 001°27'0 0.0
2018-Sep-16 08:03N 54°60' W 001°27'0 0.0
2018-Sep-16 08:00N 54°60' W 001°27'0 0.0
2018-Sep-16 07:30N 54°60' W 001°27'0 0.0
2018-Sep-16 07:03N 54°60' W 001°27'0 0.0
2018-Sep-16 07:00N 54°60' W 001°27'0 0.0
2018-Sep-16 06:30N 54°60' W 001°27'0 0.0
2018-Sep-16 06:03N 54°60' W 001°27'0 0.0
2018-Sep-16 06:00N 54°60' W 001°27'0 0.0
2018-Sep-16 05:30N 54°60' W 001°27'0 0.0
2018-Sep-16 05:03N 54°60' W 001°27'0 0.0
2018-Sep-16 05:00N 54°60' W 001°27'0 0.0
2018-Sep-16 04:30N 54°60' W 001°27'3 6.4
2018-Sep-16 04:03N 55°01' W 001°22'0 9.0
2018-Sep-16 04:00N 55°01' W 001°22'510.1
2018-Sep-16 03:30N 55°01' W 001°13'511.4
2018-Sep-16 03:03N 54°60' W 001°04'111.6
2018-Sep-16 03:00N 54°60' W 001°03'611.8
2018-Sep-16 02:30N 54°56' W 000°55'4011.7
2018-Sep-15 23:06N 54°30' W 000°03'111.4
2018-Sep-15 23:00N 54°29' W 000°02'611.3
2018-Sep-15 22:30N 54°25' E 000°05'511.1
2018-Sep-15 22:03N 54°21' E 000°10'111.1
2018-Sep-15 22:00N 54°21' E 000°11'510.7
2018-Sep-15 21:30N 54°16' E 000°16'510.7
2018-Sep-15 21:03N 54°12' E 000°21'110.7
2018-Sep-15 21:00N 54°12' E 000°22'611.8
2018-Sep-15 20:30N 54°07' E 000°28'715.5
2018-Sep-15 20:03N 54°02' E 000°35'115.1
2018-Sep-15 20:00N 54°01' E 000°36'2715.7
2018-Sep-15 18:18N 53°41' E 001°06'716.4
2018-Sep-15 17:53N 53°37' E 001°15'716.5
2018-Sep-15 17:28N 53°35' E 001°26'717.1
2018-Sep-15 17:03N 53°32' E 001°37'117.2
2018-Sep-15 17:00N 53°31' E 001°38'917.3
2018-Sep-15 16:30N 53°26' E 001°50'817.7
2018-Sep-15 16:03N 53°21' E 001°59'117.5
2018-Sep-15 16:00N 53°20' E 002°00'917.2
2018-Sep-15 15:30N 53°15' E 002°12'1916.3
2018-Sep-15 14:22N 53°04' E 002°37'5315.0
2018-Sep-15 10:51N 52°12' E 002°41'1015.1
2018-Sep-15 10:11N 52°02' E 002°39'215.3
2018-Sep-15 10:03N 51°60' E 002°38'115.5
2018-Sep-15 10:00N 51°59' E 002°38'815.5
2018-Sep-15 09:28N 51°51' E 002°37'615.4
2018-Sep-15 09:03N 51°45' E 002°33'115.7
2018-Sep-15 09:01N 51°44' E 002°32'816.0
2018-Sep-15 08:30N 51°38' E 002°24'716.3
2018-Sep-15 08:04N 51°33' E 002°16'116.5
2018-Sep-15 08:00N 51°32' E 002°15'816.7
2018-Sep-15 07:30N 51°26' E 002°06'816.8
2018-Sep-15 07:03N 51°20' E 001°58'116.8
2018-Sep-15 07:00N 51°19' E 001°57'917.1
2018-Sep-15 06:30N 51°13' E 001°48'817.2
2018-Sep-15 06:03N 51°07' E 001°41'117.4
2018-Sep-15 06:01N 51°06' E 001°41'917.5
2018-Sep-15 05:30N 50°59' E 001°32'817.9
2018-Sep-15 05:03N 50°52' E 001°26'117.7
2018-Sep-15 05:01N 50°51' E 001°25'9316.8
2018-Sep-14 23:28N 50°13' W 000°48'919.5
2018-Sep-14 23:01N 50°11' W 001°01'018.8
2018-Sep-14 23:00N 50°11' W 001°02'1019.4
2018-Sep-14 22:30N 50°07' W 001°16'919.5
2018-Sep-14 22:04N 50°05' W 001°29'119.6
2018-Sep-14 22:00N 50°05' W 001°31'1019.3
2018-Sep-14 21:30N 50°02' W 001°45'818.6
2018-Sep-14 21:03N 50°00' W 001°58'118.2
2018-Sep-14 21:00N 49°60' W 001°59'917.8
2018-Sep-14 20:30N 49°58' W 002°13'1217.0
2018-Sep-14 19:48N 49°55' W 002°31'1416.5
2018-Sep-14 18:57N 49°51' W 002°52'1615.8
2018-Sep-14 17:57N 49°43' W 003°12'8215.1
2018-Sep-14 12:32N 49°01' W 005°01'113.9
2018-Sep-14 12:29N 49°01' W 005°02'614.0
2018-Sep-14 12:03N 48°57' W 005°09'114.2
2018-Sep-14 11:59N 48°57' W 005°10'714.1
2018-Sep-14 11:30N 48°52' W 005°18'614.2
2018-Sep-14 11:03N 48°50' W 005°27'115.0
2018-Sep-14 11:00N 48°49' W 005°28'41510.6
2018-Sep-12 19:54N 42°26' W 009°12'615.0
2018-Sep-12 19:30N 42°22' W 009°06'614.8
2018-Sep-12 19:03N 42°18' W 008°59'115.0
2018-Sep-12 19:00N 42°18' W 008°58'714.6
2018-Sep-12 18:30N 42°14' W 008°49'4 6.2
2018-Sep-12 17:49N 42°15' W 008°44'0 0.0
2018-Sep-12 17:26N 42°15' W 008°44'0 0.0
2018-Sep-12 17:01N 42°15' W 008°44'0 0.0
2018-Sep-12 16:55N 42°15' W 008°44'0 0.0
2018-Sep-12 16:25N 42°15' W 008°44'0 0.0
2018-Sep-12 15:44N 42°15' W 008°44'0 0.0
2018-Sep-12 15:26N 42°15' W 008°44'0 0.0
2018-Sep-12 15:02N 42°15' W 008°44'0 0.0
2018-Sep-12 14:56N 42°15' W 008°44'0 0.0
2018-Sep-12 14:01N 42°15' W 008°44'0 0.0
2018-Sep-12 13:50N 42°15' W 008°44'0 0.0
2018-Sep-12 13:26N 42°15' W 008°44'0 0.0
2018-Sep-12 12:56N 42°15' W 008°44'0 0.0
2018-Sep-12 12:25N 42°15' W 008°44'0 0.0
2018-Sep-12 11:49N 42°15' W 008°44'0 0.0
2018-Sep-12 11:26N 42°15' W 008°44'0 0.0
2018-Sep-12 11:02N 42°15' W 008°44'0 0.0
2018-Sep-12 10:56N 42°15' W 008°44'0 0.0
2018-Sep-12 10:26N 42°15' W 008°44'1 1.3
2018-Sep-12 10:03N 42°15' W 008°44'0 6.4
2018-Sep-12 10:00N 42°15' W 008°45'5 9.7
2018-Sep-12 09:30N 42°12' W 008°50'715.4
2018-Sep-12 09:03N 42°08' W 008°58'115.6
2018-Sep-12 09:00N 42°07' W 008°58'815.8
2018-Sep-12 08:30N 42°01' W 009°05'715.6
2018-Sep-12 08:03N 41°55' W 009°11'115.3
2018-Sep-12 08:00N 41°55' W 009°11'715.1
2018-Sep-12 07:30N 41°48' W 009°14'714.8
2018-Sep-12 07:03N 41°41' W 009°16'114.4
2018-Sep-12 06:59N 41°40' W 009°16'714.1
2018-Sep-12 06:30N 41°33' W 009°18'715.1
2018-Sep-12 06:03N 41°27' W 009°19'115.0
2018-Sep-12 06:00N 41°26' W 009°19'714.7
2018-Sep-12 05:30N 41°19' W 009°21'715.0
2018-Sep-12 05:03N 41°12' W 009°23'215.2
2018-Sep-12 04:57N 41°11' W 009°23'715.5
2018-Sep-12 04:30N 41°04' W 009°25'715.4
2018-Sep-12 04:03N 40°57' W 009°26'115.3
2018-Sep-12 04:00N 40°56' W 009°26'815.6
2018-Sep-12 03:30N 40°48' W 009°28'715.5
2018-Sep-12 03:03N 40°41' W 009°29'115.2
2018-Sep-12 03:00N 40°41' W 009°29'815.2
2018-Sep-12 02:30N 40°34' W 009°33'715.3
2018-Sep-12 02:03N 40°27' W 009°34'115.1
2018-Sep-12 02:00N 40°26' W 009°35'815.1
2018-Sep-12 01:30N 40°19' W 009°37'715.2
2018-Sep-12 01:03N 40°12' W 009°38'115.4
2018-Sep-12 01:00N 40°11' W 009°38'815.2
2018-Sep-12 00:30N 40°04' W 009°40'715.2
2018-Sep-12 00:03N 39°57' W 009°42'115.2
2018-Sep-12 00:00N 39°56' W 009°42'715.1
2018-Sep-11 23:30N 39°49' W 009°44'714.9
2018-Sep-11 23:03N 39°42' W 009°46'114.8
2018-Sep-11 23:00N 39°41' W 009°46'715.1
2018-Sep-11 22:30N 39°34' W 009°47'714.9
2018-Sep-11 22:03N 39°27' W 009°46'114.8
2018-Sep-11 22:00N 39°27' W 009°46'714.8
2018-Sep-11 21:30N 39°19' W 009°46'614.4
2018-Sep-11 21:03N 39°13' W 009°45'114.7
2018-Sep-11 21:00N 39°12' W 009°45'714.8
2018-Sep-11 20:30N 39°05' W 009°45'714.7
2018-Sep-11 20:03N 38°58' W 009°45'115.1
2018-Sep-11 20:00N 38°57' W 009°44'715.0
2018-Sep-11 19:31N 38°50' W 009°44'614.4
2018-Sep-11 19:04N 38°43' W 009°43'114.8
2018-Sep-11 19:01N 38°43' W 009°43'713.1
2018-Sep-11 18:30N 38°38' W 009°37'715.5
2018-Sep-11 18:04N 38°37' W 009°28'114.6
2018-Sep-11 18:00N 38°37' W 009°27'714.4
2018-Sep-11 17:30N 38°40' W 009°18'613.9
2018-Sep-11 17:03N 38°41' W 009°11'114.9
2018-Sep-11 17:00N 38°41' W 009°10'2 4.3
2018-Sep-11 16:30N 38°43' W 009°07'0 0.0
2018-Sep-11 15:54N 38°43' W 009°07'0 0.0
2018-Sep-11 15:30N 38°43' W 009°07'0 0.0
2018-Sep-11 15:00N 38°43' W 009°07'0 0.0
2018-Sep-11 14:30N 38°43' W 009°07'0 0.0
2018-Sep-11 13:54N 38°43' W 009°07'0 0.0
2018-Sep-11 13:27N 38°43' W 009°07'0 0.0
2018-Sep-11 13:03N 38°43' W 009°07'0 0.0
2018-Sep-11 12:51N 38°43' W 009°07'0 0.0
2018-Sep-11 12:30N 38°43' W 009°07'0 0.0
2018-Sep-11 12:03N 38°43' W 009°07'0 0.0
2018-Sep-11 11:57N 38°43' W 009°07'0 0.0
2018-Sep-11 11:27N 38°43' W 009°07'0 0.0
2018-Sep-11 11:03N 38°43' W 009°07'0 0.0
2018-Sep-11 11:00N 38°43' W 009°07'0 0.0
2018-Sep-11 10:27N 38°43' W 009°07'0 0.0
2018-Sep-11 09:54N 38°43' W 009°07'0 0.0
2018-Sep-11 09:30N 38°43' W 009°07'0 0.5
2018-Sep-11 09:03N 38°43' W 009°07'0 5.3
2018-Sep-11 09:00N 38°42' W 009°08'610.8
2018-Sep-11 08:29N 38°41' W 009°15'511.3
2018-Sep-11 08:04N 38°39' W 009°20'113.7
2018-Sep-11 08:00N 38°38' W 009°21'815.8
2018-Sep-11 07:31N 38°31' W 009°24'817.3
2018-Sep-11 07:03N 38°23' W 009°24'117.2
2018-Sep-11 07:01N 38°22' W 009°24'816.9
2018-Sep-11 06:30N 38°14' W 009°25'817.1
2018-Sep-11 06:04N 38°06' W 009°24'117.2
2018-Sep-11 06:01N 38°05' W 009°24'917.1
2018-Sep-11 05:31N 37°57' W 009°24'817.3
2018-Sep-11 05:04N 37°49' W 009°24'117.4
2018-Sep-11 05:01N 37°48' W 009°24'917.0
2018-Sep-11 04:30N 37°40' W 009°24'716.5
2018-Sep-11 04:04N 37°32' W 009°23'116.2
2018-Sep-11 03:59N 37°31' W 009°23'1316.7
2018-Sep-11 03:13N 37°18' W 009°22'317.6
2018-Sep-11 03:03N 37°15' W 009°22'117.4
2018-Sep-11 03:00N 37°14' W 009°22'  
Track history (hours):
 
Tides and Currents Weather Stations Pressure Air Temp Water Temp Dewpoint Dewpoint Depression Visibility Wind Speed Wind Dir Waves Ship Positions

Norwegian Crown

Operator: Norwegian Cruise Line

Last reported at 2018-Sep-21 02:31 UTC. Time now 2018-Sep-21 02:44 UTC.
Position N 51°57' E 003°33'.

Type: Ship. MMSI: 308785000.

Date/timePositionNaut miles runAvg speedWind from/ knotsBaromVisibWave heightAir tempDewpointWater temp
2018-Sep-21 02:31N 51°57' E 003°33'4 9.7
2018-Sep-21 02:03N 51°55' E 003°26'110.1
2018-Sep-21 01:58N 51°55' E 003°25'5 9.9
2018-Sep-21 01:30N 51°54' E 003°17'410.0
2018-Sep-21 01:03N 51°53' E 003°10'110.3
2018-Sep-21 00:59N 51°52' E 003°09'510.1
2018-Sep-21 00:28N 51°51' E 003°01'510.3
2018-Sep-21 00:00N 51°49' E 002°54'810.4
2018-Sep-20 23:13N 51°46' E 002°42'211.2
2018-Sep-20 23:03N 51°45' E 002°40'110.9
2018-Sep-20 22:59N 51°44' E 002°40'5 9.9
2018-Sep-20 22:29N 51°39' E 002°43'3 6.3
2018-Sep-20 22:02N 51°36' E 002°44'011.0
2018-Sep-20 22:00N 51°36' E 002°43'3 7.0
2018-Sep-20 21:30N 51°33' E 002°45'3 5.6
2018-Sep-20 21:03N 51°31' E 002°43'010.1
2018-Sep-20 21:00N 51°31' E 002°42'2 4.1
2018-Sep-20 20:29N 51°29' E 002°41'4 8.8
2018-Sep-20 20:03N 51°25' E 002°43'0 8.3
2018-Sep-20 20:00N 51°25' E 002°43'4 7.2
2018-Sep-20 19:30N 51°22' E 002°46'511.8
2018-Sep-20 19:04N 51°23' E 002°55'111.9
2018-Sep-20 19:00N 51°23' E 002°56'611.4
2018-Sep-20 18:31N 51°24' E 003°04'511.1
2018-Sep-20 18:03N 51°22' E 003°11'111.0
2018-Sep-20 18:01N 51°22' E 003°12'1 2.2
2018-Sep-20 17:30N 51°20' E 003°12'0 0.0
2018-Sep-20 17:00N 51°20' E 003°12'0 0.0
2018-Sep-20 16:30N 51°20' E 003°12'0 0.0
2018-Sep-20 16:03N 51°20' E 003°12'0 0.0
2018-Sep-20 16:00N 51°20' E 003°12'0 0.0
2018-Sep-20 15:30N 51°20' E 003°12'0 0.0
2018-Sep-20 15:00N 51°20' E 003°12'0 0.0
2018-Sep-20 14:30N 51°20' E 003°12'0 0.0
2018-Sep-20 14:00N 51°20' E 003°12'0 0.0
2018-Sep-20 13:30N 51°20' E 003°12'0 0.0
2018-Sep-20 13:03N 51°20' E 003°12'0 0.0
2018-Sep-20 13:00N 51°20' E 003°12'0 0.0
2018-Sep-20 12:30N 51°20' E 003°12'0 0.0
2018-Sep-20 12:03N 51°20' E 003°12'0 0.0
2018-Sep-20 12:00N 51°20' E 003°12'0 0.0
2018-Sep-20 11:30N 51°20' E 003°12'0 0.0
2018-Sep-20 11:00N 51°20' E 003°12'0 0.0
2018-Sep-20 10:27N 51°20' E 003°12'0 0.0
2018-Sep-20 10:00N 51°20' E 003°12'0 0.0
2018-Sep-20 09:27N 51°20' E 003°12'0 0.0
2018-Sep-20 09:03N 51°20' E 003°12'0 0.0
2018-Sep-20 09:00N 51°20' E 003°12'0 0.0
2018-Sep-20 08:30N 51°20' E 003°12'0 0.0
2018-Sep-20 08:00N 51°20' E 003°12'0 0.0
2018-Sep-20 07:30N 51°20' E 003°12'0 0.0
2018-Sep-20 07:03N 51°20' E 003°12'0 0.0
2018-Sep-20 07:00N 51°20' E 003°12'0 0.0
2018-Sep-20 06:30N 51°20' E 003°12'0 0.3
2018-Sep-20 06:04N 51°21' E 003°12'0 1.9
2018-Sep-20 06:00N 51°21' E 003°12'3 6.8
2018-Sep-20 05:30N 51°23' E 003°09'614.1
2018-Sep-20 05:03N 51°23' E 002°59'115.2
2018-Sep-20 05:00N 51°23' E 002°58'714.8
2018-Sep-20 04:30N 51°22' E 002°46'510.2
2018-Sep-20 04:03N 51°22' E 002°39'115.2
2018-Sep-20 03:59N 51°22' E 002°37'510.5
2018-Sep-20 03:30N 51°26' E 002°32'715.7
2018-Sep-20 03:03N 51°33' E 002°36'115.4
2018-Sep-20 03:00N 51°34' E 002°37'814.8
2018-Sep-20 02:30N 51°41' E 002°39'715.3
2018-Sep-20 02:02N 51°48' E 002°38'014.2
2018-Sep-20 02:00N 51°49' E 002°38'813.9
2018-Sep-20 01:27N 51°56' E 002°41'714.4
2018-Sep-20 00:58N 52°01' E 002°48'714.7
2018-Sep-20 00:29N 52°01' E 002°60'614.3
2018-Sep-20 00:03N 52°03' E 003°09'114.2
2018-Sep-20 00:00N 52°03' E 003°11'714.0
2018-Sep-19 23:30N 52°03' E 003°22'613.9
2018-Sep-19 23:03N 52°03' E 003°32'113.7
2018-Sep-19 23:00N 52°03' E 003°33'713.1
2018-Sep-19 22:30N 52°05' E 003°43'612.8
2018-Sep-19 22:03N 52°11' E 003°46'113.2
2018-Sep-19 22:00N 52°12' E 003°46'613.1
2018-Sep-19 21:30N 52°18' E 003°47'612.9
2018-Sep-19 21:03N 52°24' E 003°50'112.9
2018-Sep-19 21:00N 52°24' E 003°50'612.5
2018-Sep-19 20:30N 52°31' E 003°52'612.9
2018-Sep-19 20:03N 52°31' E 004°02'113.1
2018-Sep-19 20:00N 52°31' E 004°03'713.6
2018-Sep-19 19:30N 52°31' E 004°14'613.1
2018-Sep-19 19:03N 52°30' E 004°23'0 9.2
2018-Sep-19 19:00N 52°30' E 004°24'4 8.7
2018-Sep-19 18:30N 52°28' E 004°31'3 7.7
2018-Sep-19 18:03N 52°28' E 004°36'0 0.0
2018-Sep-19 18:00N 52°28' E 004°36'2 4.0
2018-Sep-19 17:30N 52°28' E 004°40'4 7.8
2018-Sep-19 17:03N 52°26' E 004°45'0 8.2
2018-Sep-19 17:00N 52°26' E 004°45'4 7.3
2018-Sep-19 16:31N 52°25' E 004°51'3 6.6
2018-Sep-19 16:03N 52°23' E 004°54'0 5.7
2018-Sep-19 16:00N 52°23' E 004°55'0 0.1
2018-Sep-19 15:29N 52°23' E 004°55'0 0.0
2018-Sep-19 15:02N 52°23' E 004°55'0 0.0
2018-Sep-19 14:59N 52°23' E 004°55'0 0.0
2018-Sep-19 13:59N 52°23' E 004°55'0 0.0
2018-Sep-19 13:29N 52°23' E 004°55'0 0.0
2018-Sep-19 13:02N 52°23' E 004°55'0 0.0
2018-Sep-19 12:59N 52°23' E 004°55'0 0.0
2018-Sep-19 12:29N 52°23' E 004°55'0 0.0
2018-Sep-19 12:02N 52°23' E 004°55'0 0.0
2018-Sep-19 11:59N 52°23' E 004°55'0 0.0
2018-Sep-19 11:29N 52°23' E 004°55'0 0.0
2018-Sep-19 11:02N 52°23' E 004°55'0 0.0
2018-Sep-19 10:59N 52°23' E 004°55'0 0.0
2018-Sep-19 10:29N 52°23' E 004°55'0 0.0
2018-Sep-19 10:02N 52°23' E 004°55'0 0.0
2018-Sep-19 09:59N 52°23' E 004°55'0 0.0
2018-Sep-19 09:29N 52°23' E 004°55'0 0.0
2018-Sep-19 09:02N 52°23' E 004°55'0 0.0
2018-Sep-19 08:59N 52°23' E 004°55'0 0.0
2018-Sep-19 08:29N 52°23' E 004°55'0 0.0
2018-Sep-19 08:02N 52°23' E 004°55'0 0.0
2018-Sep-19 07:59N 52°23' E 004°55'0 0.0
2018-Sep-19 07:29N 52°23' E 004°55'0 0.0
2018-Sep-19 07:02N 52°23' E 004°55'0 0.0
2018-Sep-19 06:59N 52°23' E 004°55'0 0.0
2018-Sep-19 06:29N 52°23' E 004°55'0 0.0
2018-Sep-19 06:02N 52°23' E 004°55'0 0.0
2018-Sep-19 05:59N 52°23' E 004°55'0 0.0
2018-Sep-19 05:29N 52°23' E 004°55'0 0.0
2018-Sep-19 05:02N 52°23' E 004°55'0 0.0
2018-Sep-19 04:59N 52°23' E 004°55'0 0.0
2018-Sep-19 04:29N 52°23' E 004°55'0 0.0
2018-Sep-19 04:02N 52°23' E 004°55'0 0.0
2018-Sep-19 03:59N 52°23' E 004°55'0 0.0
2018-Sep-19 03:29N 52°23' E 004°55'0 0.0
2018-Sep-19 03:02N 52°23' E 004°55'0 0.0
2018-Sep-19 02:59N 52°23' E 004°55'0 0.0
2018-Sep-19 02:29N 52°23' E 004°55'0 0.0
2018-Sep-19 02:02N 52°23' E 004°55'0 0.0
2018-Sep-19 01:59N 52°23' E 004°55'0 0.0
2018-Sep-19 01:29N 52°23' E 004°55'0 0.0
2018-Sep-19 01:02N 52°23' E 004°55'0 0.0
2018-Sep-19 00:59N 52°23' E 004°55'0 0.0
2018-Sep-19 00:29N 52°23' E 004°55'0 0.0
2018-Sep-19 00:02N 52°23' E 004°55'0 0.0
2018-Sep-18 23:59N 52°23' E 004°55'0 0.0
2018-Sep-18 23:29N 52°23' E 004°55'0 0.0
2018-Sep-18 23:02N 52°23' E 004°55'0 0.0
2018-Sep-18 22:59N 52°23' E 004°55'0 0.0
2018-Sep-18 22:29N 52°23' E 004°55'0 0.0
2018-Sep-18 22:02N 52°23' E 004°55'0 0.0
2018-Sep-18 21:59N 52°23' E 004°55'0 0.0
2018-Sep-18 21:29N 52°23' E 004°55'0 0.0
2018-Sep-18 21:02N 52°23' E 004°55'0 0.0
2018-Sep-18 20:59N 52°23' E 004°55'0 0.0
2018-Sep-18 20:29N 52°23' E 004°55'0 0.0
2018-Sep-18 20:02N 52°23' E 004°55'0 0.0
2018-Sep-18 19:59N 52°23' E 004°55'0 0.0
2018-Sep-18 19:29N 52°23' E 004°55'0 0.0
2018-Sep-18 19:02N 52°23' E 004°55'0 0.0
2018-Sep-18 18:59N 52°23' E 004°55'0 0.0
2018-Sep-18 18:26N 52°23' E 004°55'0 0.0
2018-Sep-18 18:02N 52°23' E 004°55'0 0.0
2018-Sep-18 17:59N 52°23' E 004°55'0 0.0
2018-Sep-18 17:29N 52°23' E 004°55'0 0.0
2018-Sep-18 17:02N 52°23' E 004°55'0 0.0
2018-Sep-18 16:59N 52°23' E 004°55'0 0.0
2018-Sep-18 16:29N 52°23' E 004°55'0 0.0
2018-Sep-18 16:02N 52°23' E 004°55'0 0.0
2018-Sep-18 15:59N 52°23' E 004°55'0 0.0
2018-Sep-18 15:26N 52°23' E 004°55'0 0.0
2018-Sep-18 15:02N 52°23' E 004°55'0 0.0
2018-Sep-18 14:59N 52°23' E 004°55'0 0.0
2018-Sep-18 14:02N 52°23' E 004°55'0 0.0
2018-Sep-18 13:59N 52°23' E 004°55'0 0.0
2018-Sep-18 13:29N 52°23' E 004°55'0 0.0
2018-Sep-18 13:02N 52°23' E 004°55'0 0.0
2018-Sep-18 12:59N 52°23' E 004°55'0 0.0
2018-Sep-18 12:29N 52°23' E 004°55'0 0.0
2018-Sep-18 12:02N 52°23' E 004°55'0 0.0
2018-Sep-18 11:59N 52°23' E 004°55'0 0.0
2018-Sep-18 11:29N 52°23' E 004°55'0 0.0
2018-Sep-18 11:02N 52°23' E 004°55'0 0.0
2018-Sep-18 10:59N 52°23' E 004°55'0 0.0
2018-Sep-18 10:29N 52°23' E 004°55'0 0.0
2018-Sep-18 10:02N 52°23' E 004°55'0 0.0
2018-Sep-18 09:56N 52°23' E 004°55'0 0.0
2018-Sep-18 09:26N 52°23' E 004°55'0 0.0
2018-Sep-18 09:02N 52°23' E 004°55'0 0.0
2018-Sep-18 08:59N 52°23' E 004°55'0 0.0
2018-Sep-18 08:30N 52°23' E 004°55'0 1.0
2018-Sep-18 08:03N 52°23' E 004°54'0 6.1
2018-Sep-18 08:00N 52°23' E 004°54'3 6.7
2018-Sep-18 07:30N 52°25' E 004°49'4 8.1
2018-Sep-18 07:03N 52°26' E 004°44'0 8.7
2018-Sep-18 07:00N 52°26' E 004°43'4 8.1
2018-Sep-18 06:30N 52°28' E 004°37'0 1.0
2018-Sep-18 06:03N 52°28' E 004°36'0 2.6
2018-Sep-18 06:00N 52°28' E 004°36'2 4.0
2018-Sep-18 05:30N 52°28' E 004°33'510.5
2018-Sep-18 05:03N 52°29' E 004°25'0 7.5
2018-Sep-18 05:00N 52°29' E 004°25'3 6.5
2018-Sep-18 04:30N 52°28' E 004°19'3 7.4
2018-Sep-18 04:03N 52°29' E 004°14'110.3
2018-Sep-18 04:00N 52°29' E 004°13'611.3
2018-Sep-18 03:30N 52°28' E 004°04'510.3
2018-Sep-18 03:03N 52°27' E 003°57'010.0
2018-Sep-18 03:00N 52°27' E 003°56'510.0
2018-Sep-18 02:30N 52°26' E 003°48'510.1
2018-Sep-18 02:03N 52°25' E 003°40'110.0
2018-Sep-18 02:00N 52°25' E 003°39'510.1
2018-Sep-18 01:30N 52°24' E 003°31'510.3
2018-Sep-18 01:03N 52°24' E 003°24'110.4
2018-Sep-18 01:00N 52°24' E 003°23'510.1
2018-Sep-18 00:30N 52°22' E 003°15'510.6
2018-Sep-18 00:03N 52°20' E 003°08'110.7
2018-Sep-18 00:00N 52°19' E 003°08'611.3
2018-Sep-17 23:30N 52°17' E 002°59'511.4
2018-Sep-17 23:03N 52°14' E 002°52'111.2
2018-Sep-17 23:00N 52°14' E 002°51'611.4
2018-Sep-17 22:30N 52°11' E 002°44'4 8.5
2018-Sep-17 22:03N 52°09' E 002°38'0 9.7
2018-Sep-17 22:01N 52°10' E 002°38'5 9.7
2018-Sep-17 21:30N 52°15' E 002°39'4 9.3
2018-Sep-17 21:03N 52°19' E 002°39'0 9.2
2018-Sep-17 21:01N 52°19' E 002°39'5 9.3
2018-Sep-17 20:30N 52°24' E 002°39'4 9.3
2018-Sep-17 20:03N 52°28' E 002°39'0 9.3
2018-Sep-17 20:00N 52°28' E 002°39'4 8.9
2018-Sep-17 19:30N 52°33' E 002°39'4 8.5
2018-Sep-17 19:03N 52°37' E 002°38'0 8.6
2018-Sep-17 19:00N 52°37' E 002°38'4 8.6
2018-Sep-17 18:30N 52°41' E 002°38'4 8.7
2018-Sep-17 18:03N 52°45' E 002°38'0 8.9
2018-Sep-17 18:00N 52°46' E 002°38'5 9.1
2018-Sep-17 17:30N 52°50' E 002°39'4 9.3
2018-Sep-17 17:03N 52°55' E 002°39'0 9.5
2018-Sep-17 17:00N 52°55' E 002°39'5 9.2
2018-Sep-17 16:30N 52°59' E 002°34'4 9.6
2018-Sep-17 16:03N 53°02' E 002°30'1 9.6
2018-Sep-17 16:00N 53°02' E 002°29'5 9.8
2018-Sep-17 15:30N 53°06' E 002°24'510.0
2018-Sep-17 15:03N 53°09' E 002°18'010.0
2018-Sep-17 15:01N 53°10' E 002°18'510.0
2018-Sep-17 14:30N 53°13' E 002°12'510.4
2018-Sep-17 14:00N 53°17' E 002°06'510.5
2018-Sep-17 13:30N 53°20' E 001°59'510.5
2018-Sep-17 13:03N 53°24' E 001°54'110.7
2018-Sep-17 13:00N 53°24' E 001°54'610.7
2018-Sep-17 12:29N 53°28' E 001°47'511.0
2018-Sep-17 12:03N 53°31' E 001°41'110.9
2018-Sep-17 12:00N 53°32' E 001°40'1110.7
2018-Sep-17 10:56N 53°38' E 001°25'3510.3
2018-Sep-17 07:32N 54°05' E 000°46'210.1
2018-Sep-17 07:23N 54°06' E 000°45'310.2
2018-Sep-17 07:04N 54°10' E 000°45'110.0
2018-Sep-17 07:00N 54°10' E 000°45'510.2
2018-Sep-17 06:31N 54°15' E 000°45'510.1
2018-Sep-17 06:02N 54°20' E 000°45'7 9.8
2018-Sep-17 05:19N 54°27' E 000°45'4 9.8
2018-Sep-17 04:56N 54°31' E 000°46'5 9.6
2018-Sep-17 04:28N 54°35' E 000°46'59 7.3
2018-Sep-16 20:23N 54°58' W 000°48'6 9.9
2018-Sep-16 19:44N 54°56' W 000°59'210.3
2018-Sep-16 19:30N 54°57' W 001°02'510.4
2018-Sep-16 19:03N 54°59' W 001°10'110.4
2018-Sep-16 19:00N 54°59' W 001°11'510.3
2018-Sep-16 18:30N 55°00' W 001°19'4 8.6
2018-Sep-16 18:03N 55°00' W 001°26'0 6.5
2018-Sep-16 18:00N 55°00' W 001°26'1 1.4
2018-Sep-16 17:30N 54°60' W 001°27'0 0.1
2018-Sep-16 17:03N 54°60' W 001°27'0 0.0
2018-Sep-16 17:00N 54°60' W 001°27'0 0.0
2018-Sep-16 16:30N 54°60' W 001°27'0 0.0
2018-Sep-16 16:03N 54°60' W 001°27'0 0.0
2018-Sep-16 16:00N 54°60' W 001°27'0 0.0
2018-Sep-16 15:30N 54°60' W 001°27'0 0.0
2018-Sep-16 15:03N 54°60' W 001°27'0 0.0
2018-Sep-16 15:00N 54°60' W 001°27'0 0.0
2018-Sep-16 14:30N 54°60' W 001°27'0 0.0
2018-Sep-16 13:30N 54°60' W 001°27'0 0.0
2018-Sep-16 13:03N 54°60' W 001°27'0 0.0
2018-Sep-16 13:00N 54°60' W 001°27'0 0.0
2018-Sep-16 12:30N 54°60' W 001°27'0 0.0
2018-Sep-16 12:03N 54°60' W 001°27'0 0.0
2018-Sep-16 12:00N 54°60' W 001°27'0 0.0
2018-Sep-16 11:30N 54°60' W 001°27'0 0.0
2018-Sep-16 11:00N 54°60' W 001°27'0 0.0
2018-Sep-16 10:30N 54°60' W 001°27'0 0.0
2018-Sep-16 10:03N 54°60' W 001°27'0 0.0
2018-Sep-16 10:00N 54°60' W 001°27'0 0.0
2018-Sep-16 09:30N 54°60' W 001°27'0 0.0
2018-Sep-16 09:03N 54°60' W 001°27'0 0.0
2018-Sep-16 09:00N 54°60' W 001°27'0 0.0
2018-Sep-16 08:30N 54°60' W 001°27'0 0.0
2018-Sep-16 08:03N 54°60' W 001°27'0 0.0
2018-Sep-16 08:00N 54°60' W 001°27'0 0.0
2018-Sep-16 07:30N 54°60' W 001°27'0 0.0
2018-Sep-16 07:03N 54°60' W 001°27'0 0.0
2018-Sep-16 07:00N 54°60' W 001°27'0 0.0
2018-Sep-16 06:30N 54°60' W 001°27'0 0.0
2018-Sep-16 06:03N 54°60' W 001°27'0 0.0
2018-Sep-16 06:00N 54°60' W 001°27'0 0.0
2018-Sep-16 05:30N 54°60' W 001°27'0 0.0
2018-Sep-16 05:03N 54°60' W 001°27'0 0.0
2018-Sep-16 05:00N 54°60' W 001°27'0 0.0
2018-Sep-16 04:30N 54°60' W 001°27'3 6.4
2018-Sep-16 04:03N 55°01' W 001°22'0 9.0
2018-Sep-16 04:00N 55°01' W 001°22'510.1
2018-Sep-16 03:30N 55°01' W 001°13'511.4
2018-Sep-16 03:03N 54°60' W 001°04'111.6
2018-Sep-16 03:00N 54°60' W 001°03'611.8
2018-Sep-16 02:30N 54°56' W 000°55'4011.7
2018-Sep-15 23:06N 54°30' W 000°03'111.4
2018-Sep-15 23:00N 54°29' W 000°02'611.3
2018-Sep-15 22:30N 54°25' E 000°05'511.1
2018-Sep-15 22:03N 54°21' E 000°10'111.1
2018-Sep-15 22:00N 54°21' E 000°11'510.7
2018-Sep-15 21:30N 54°16' E 000°16'510.7
2018-Sep-15 21:03N 54°12' E 000°21'110.7
2018-Sep-15 21:00N 54°12' E 000°22'611.8
2018-Sep-15 20:30N 54°07' E 000°28'715.5
2018-Sep-15 20:03N 54°02' E 000°35'115.1
2018-Sep-15 20:00N 54°01' E 000°36'2715.7
2018-Sep-15 18:18N 53°41' E 001°06'716.4
2018-Sep-15 17:53N 53°37' E 001°15'716.5
2018-Sep-15 17:28N 53°35' E 001°26'717.1
2018-Sep-15 17:03N 53°32' E 001°37'117.2
2018-Sep-15 17:00N 53°31' E 001°38'917.3
2018-Sep-15 16:30N 53°26' E 001°50'817.7
2018-Sep-15 16:03N 53°21' E 001°59'117.5
2018-Sep-15 16:00N 53°20' E 002°00'917.2
2018-Sep-15 15:30N 53°15' E 002°12'1916.3
2018-Sep-15 14:22N 53°04' E 002°37'5315.0
2018-Sep-15 10:51N 52°12' E 002°41'1015.1
2018-Sep-15 10:11N 52°02' E 002°39'215.3
2018-Sep-15 10:03N 51°60' E 002°38'115.5
2018-Sep-15 10:00N 51°59' E 002°38'815.5
2018-Sep-15 09:28N 51°51' E 002°37'615.4
2018-Sep-15 09:03N 51°45' E 002°33'115.7
2018-Sep-15 09:01N 51°44' E 002°32'816.0
2018-Sep-15 08:30N 51°38' E 002°24'716.3
2018-Sep-15 08:04N 51°33' E 002°16'116.5
2018-Sep-15 08:00N 51°32' E 002°15'816.7
2018-Sep-15 07:30N 51°26' E 002°06'816.8
2018-Sep-15 07:03N 51°20' E 001°58'116.8
2018-Sep-15 07:00N 51°19' E 001°57'917.1
2018-Sep-15 06:30N 51°13' E 001°48'817.2
2018-Sep-15 06:03N 51°07' E 001°41'117.4
2018-Sep-15 06:01N 51°06' E 001°41'917.5
2018-Sep-15 05:30N 50°59' E 001°32'817.9
2018-Sep-15 05:03N 50°52' E 001°26'117.7
2018-Sep-15 05:01N 50°51' E 001°25'9316.8
2018-Sep-14 23:28N 50°13' W 000°48'919.5
2018-Sep-14 23:01N 50°11' W 001°01'018.8
2018-Sep-14 23:00N 50°11' W 001°02'1019.4
2018-Sep-14 22:30N 50°07' W 001°16'919.5
2018-Sep-14 22:04N 50°05' W 001°29'119.6
2018-Sep-14 22:00N 50°05' W 001°31'1019.3
2018-Sep-14 21:30N 50°02' W 001°45'818.6
2018-Sep-14 21:03N 50°00' W 001°58'118.2
2018-Sep-14 21:00N 49°60' W 001°59'917.8
2018-Sep-14 20:30N 49°58' W 002°13'1217.0
2018-Sep-14 19:48N 49°55' W 002°31'1416.5
2018-Sep-14 18:57N 49°51' W 002°52'1615.8
2018-Sep-14 17:57N 49°43' W 003°12'8215.1
2018-Sep-14 12:32N 49°01' W 005°01'113.9
2018-Sep-14 12:29N 49°01' W 005°02'614.0
2018-Sep-14 12:03N 48°57' W 005°09'114.2
2018-Sep-14 11:59N 48°57' W 005°10'714.1
2018-Sep-14 11:30N 48°52' W 005°18'614.2
2018-Sep-14 11:03N 48°50' W 005°27'115.0
2018-Sep-14 11:00N 48°49' W 005°28'41510.6
2018-Sep-12 19:54N 42°26' W 009°12'615.0
2018-Sep-12 19:30N 42°22' W 009°06'614.8
2018-Sep-12 19:03N 42°18' W 008°59'115.0
2018-Sep-12 19:00N 42°18' W 008°58'714.6
2018-Sep-12 18:30N 42°14' W 008°49'4 6.2
2018-Sep-12 17:49N 42°15' W 008°44'0 0.0
2018-Sep-12 17:26N 42°15' W 008°44'0 0.0
2018-Sep-12 17:01N 42°15' W 008°44'0 0.0
2018-Sep-12 16:55N 42°15' W 008°44'0 0.0
2018-Sep-12 16:25N 42°15' W 008°44'0 0.0
2018-Sep-12 15:44N 42°15' W 008°44'0 0.0
2018-Sep-12 15:26N 42°15' W 008°44'0 0.0
2018-Sep-12 15:02N 42°15' W 008°44'0 0.0
2018-Sep-12 14:56N 42°15' W 008°44'0 0.0
2018-Sep-12 14:01N 42°15' W 008°44'0 0.0
2018-Sep-12 13:50N 42°15' W 008°44'0 0.0
2018-Sep-12 13:26N 42°15' W 008°44'0 0.0
2018-Sep-12 12:56N 42°15' W 008°44'0 0.0
2018-Sep-12 12:25N 42°15' W 008°44'0 0.0
2018-Sep-12 11:49N 42°15' W 008°44'0 0.0
2018-Sep-12 11:26N 42°15' W 008°44'0 0.0
2018-Sep-12 11:02N 42°15' W 008°44'0 0.0
2018-Sep-12 10:56N 42°15' W 008°44'0 0.0
2018-Sep-12 10:26N 42°15' W 008°44'1 1.3
2018-Sep-12 10:03N 42°15' W 008°44'0 6.4
2018-Sep-12 10:00N 42°15' W 008°45'5 9.7
2018-Sep-12 09:30N 42°12' W 008°50'715.4
2018-Sep-12 09:03N 42°08' W 008°58'115.6
2018-Sep-12 09:00N 42°07' W 008°58'815.8
2018-Sep-12 08:30N 42°01' W 009°05'715.6
2018-Sep-12 08:03N 41°55' W 009°11'115.3
2018-Sep-12 08:00N 41°55' W 009°11'715.1
2018-Sep-12 07:30N 41°48' W 009°14'714.8
2018-Sep-12 07:03N 41°41' W 009°16'114.4
2018-Sep-12 06:59N 41°40' W 009°16'714.1
2018-Sep-12 06:30N 41°33' W 009°18'715.1
2018-Sep-12 06:03N 41°27' W 009°19'115.0
2018-Sep-12 06:00N 41°26' W 009°19'714.7
2018-Sep-12 05:30N 41°19' W 009°21'715.0
2018-Sep-12 05:03N 41°12' W 009°23'215.2
2018-Sep-12 04:57N 41°11' W 009°23'715.5
2018-Sep-12 04:30N 41°04' W 009°25'715.4
2018-Sep-12 04:03N 40°57' W 009°26'115.3
2018-Sep-12 04:00N 40°56' W 009°26'815.6
2018-Sep-12 03:30N 40°48' W 009°28'715.5
2018-Sep-12 03:03N 40°41' W 009°29'115.2
2018-Sep-12 03:00N 40°41' W 009°29'815.2
2018-Sep-12 02:30N 40°34' W 009°33'715.3
2018-Sep-12 02:03N 40°27' W 009°34'115.1
2018-Sep-12 02:00N 40°26' W 009°35'815.1
2018-Sep-12 01:30N 40°19' W 009°37'715.2
2018-Sep-12 01:03N 40°12' W 009°38'115.4
2018-Sep-12 01:00N 40°11' W 009°38'815.2
2018-Sep-12 00:30N 40°04' W 009°40'715.2
2018-Sep-12 00:03N 39°57' W 009°42'115.2
2018-Sep-12 00:00N 39°56' W 009°42'715.1
2018-Sep-11 23:30N 39°49' W 009°44'714.9
2018-Sep-11 23:03N 39°42' W 009°46'114.8
2018-Sep-11 23:00N 39°41' W 009°46'715.1
2018-Sep-11 22:30N 39°34' W 009°47'714.9
2018-Sep-11 22:03N 39°27' W 009°46'114.8
2018-Sep-11 22:00N 39°27' W 009°46'714.8
2018-Sep-11 21:30N 39°19' W 009°46'614.4
2018-Sep-11 21:03N 39°13' W 009°45'114.7
2018-Sep-11 21:00N 39°12' W 009°45'714.8
2018-Sep-11 20:30N 39°05' W 009°45'714.7
2018-Sep-11 20:03N 38°58' W 009°45'115.1
2018-Sep-11 20:00N 38°57' W 009°44'715.0
2018-Sep-11 19:31N 38°50' W 009°44'614.4
2018-Sep-11 19:04N 38°43' W 009°43'114.8
2018-Sep-11 19:01N 38°43' W 009°43'713.1
2018-Sep-11 18:30N 38°38' W 009°37'715.5
2018-Sep-11 18:04N 38°37' W 009°28'114.6
2018-Sep-11 18:00N 38°37' W 009°27'714.4
2018-Sep-11 17:30N 38°40' W 009°18'613.9
2018-Sep-11 17:03N 38°41' W 009°11'114.9
2018-Sep-11 17:00N 38°41' W 009°10'2 4.3
2018-Sep-11 16:30N 38°43' W 009°07'0 0.0
2018-Sep-11 15:54N 38°43' W 009°07'0 0.0
2018-Sep-11 15:30N 38°43' W 009°07'0 0.0
2018-Sep-11 15:00N 38°43' W 009°07'0 0.0
2018-Sep-11 14:30N 38°43' W 009°07'0 0.0
2018-Sep-11 13:54N 38°43' W 009°07'0 0.0
2018-Sep-11 13:27N 38°43' W 009°07'0 0.0
2018-Sep-11 13:03N 38°43' W 009°07'0 0.0
2018-Sep-11 12:51N 38°43' W 009°07'0 0.0
2018-Sep-11 12:30N 38°43' W 009°07'0 0.0
2018-Sep-11 12:03N 38°43' W 009°07'0 0.0
2018-Sep-11 11:57N 38°43' W 009°07'0 0.0
2018-Sep-11 11:27N 38°43' W 009°07'0 0.0
2018-Sep-11 11:03N 38°43' W 009°07'0 0.0
2018-Sep-11 11:00N 38°43' W 009°07'0 0.0
2018-Sep-11 10:27N 38°43' W 009°07'0 0.0
2018-Sep-11 09:54N 38°43' W 009°07'0 0.0
2018-Sep-11 09:30N 38°43' W 009°07'0 0.5
2018-Sep-11 09:03N 38°43' W 009°07'0 5.3
2018-Sep-11 09:00N 38°42' W 009°08'610.8
2018-Sep-11 08:29N 38°41' W 009°15'511.3
2018-Sep-11 08:04N 38°39' W 009°20'113.7
2018-Sep-11 08:00N 38°38' W 009°21'815.8
2018-Sep-11 07:31N 38°31' W 009°24'817.3
2018-Sep-11 07:03N 38°23' W 009°24'117.2
2018-Sep-11 07:01N 38°22' W 009°24'816.9
2018-Sep-11 06:30N 38°14' W 009°25'817.1
2018-Sep-11 06:04N 38°06' W 009°24'117.2
2018-Sep-11 06:01N 38°05' W 009°24'917.1
2018-Sep-11 05:31N 37°57' W 009°24'817.3
2018-Sep-11 05:04N 37°49' W 009°24'117.4
2018-Sep-11 05:01N 37°48' W 009°24'917.0
2018-Sep-11 04:30N 37°40' W 009°24'716.5
2018-Sep-11 04:04N 37°32' W 009°23'116.2
2018-Sep-11 03:59N 37°31' W 009°23'1316.7
2018-Sep-11 03:13N 37°18' W 009°22'317.6
2018-Sep-11 03:03N 37°15' W 009°22'117.4
2018-Sep-11 03:00N 37°14' W 009°22'  

Dump ship's entire track history